Latest Weather Observations for Double Island Point

IDQ60901

Issued at 7:05 am EST Thursday 31 July 2014 (issued every 10 minutes, with the page automatically refreshed every 10 minutes)

About weather observations | Map of Brisbane area stations | Latest observations for Brisbane area | Other Formats
Station Details ID: 040068 Name: DOUBLE ISLAND POINT LIGHTHOUSE Lat: -25.93 Lon: 153.19 Height: 95.64 m
Data from the previous 72 hours. | See also: Recent months at Double Island Point
Date/Time
EST
Tmp

°C
App
Tmp
°C
Dew
Point
°C
Rel
Hum
%
Delta-T

°C
Wind Press
QNH
hPa
Press
MSL
hPa
Rain
since
9 am
mm
Dir
 
Spd
km/h
Gust
km/h
Spd
kts
Gust
kts
31/07:00am 17.4 15.1 14.1 81 1.9 NW 19 20 10 11 1021.1 1021.0 0.0
31/06:30am 17.1 14.6 14.0 82 1.8 WNW 20 22 11 12 1020.8 - 0.0
31/06:00am 16.9 14.3 13.8 82 1.8 NW 20 22 11 12 1020.5 1020.4 0.0
31/05:30am 16.9 14.2 13.6 81 1.9 WNW 20 24 11 13 1020.5 - 0.0
31/05:00am 16.7 14.1 13.8 83 1.6 WNW 20 24 11 13 1020.2 1020.1 0.0
31/04:30am 16.6 14.1 14.1 85 1.4 WNW 20 24 11 13 1020.2 - 0.0
31/04:00am 16.5 14.0 14.2 86 1.3 WNW 20 24 11 13 1020.2 1020.1 0.0
31/03:30am 16.6 14.2 13.9 84 1.5 WNW 19 20 10 11 1020.3 - 0.0
31/03:00am 16.6 14.0 13.9 84 1.5 NW 20 22 11 12 1020.2 1020.1 0.0
31/02:30am 16.7 14.4 14.0 84 1.5 NW 19 22 10 12 1020.3 - 0.0
31/02:00am 16.6 14.2 13.7 83 1.6 NW 19 22 10 12 1020.5 1020.4 0.0
31/01:30am 16.7 14.0 13.4 81 1.9 NNW 20 24 11 13 1020.7 - 0.0
31/01:00am 16.6 13.8 13.3 81 1.9 NNW 20 24 11 13 1020.9 1020.8 0.0
31/12:30am 16.7 14.0 13.0 79 2.1 NW 19 22 10 12 1021.1 - 0.0
31/12:00am 16.8 14.0 12.7 77 2.3 NW 19 20 10 11 1021.4 1021.3 0.0
 
Date/Time
EST
Tmp

°C
App
Tmp
°C
Dew
Point
°C
Rel
Hum
%
Delta-T

°C
Wind Press
QNH
hPa
Press
MSL
hPa
Rain
since
9 am
mm
Dir
 
Spd
km/h
Gust
km/h
Spd
kts
Gust
kts
30/11:30pm 16.9 14.8 12.4 75 2.5 NW 15 17 8 9 1021.6 - 0.0
30/11:00pm 17.3 15.5 12.0 71 2.9 W 13 17 7 9 1021.7 1021.6 0.0
30/10:30pm 17.3 15.8 11.8 70 3.0 W 11 15 6 8 1021.5 - 0.0
30/10:00pm 17.7 14.2 12.2 70 3.0 NNW 22 30 12 16 1021.2 1021.1 0.0
30/09:30pm 18.0 14.7 12.7 71 3.0 NNW 22 30 12 16 1021.1 - 0.0
30/09:00pm 18.0 15.0 12.7 71 3.0 NNW 20 28 11 15 1021.0 1020.9 0.0
30/08:30pm 18.3 15.9 12.7 70 3.1 NNW 17 24 9 13 1021.0 - 0.0
30/08:00pm 18.5 15.7 12.7 69 3.2 NNW 19 24 10 13 1020.9 1020.8 0.0
30/07:30pm 18.6 15.8 12.6 68 3.4 NNW 19 26 10 14 1020.8 - 0.0
30/07:00pm 19.1 17.1 12.8 67 3.5 N 15 28 8 15 1020.5 1020.4 0.0
30/06:30pm 19.2 17.5 12.5 65 3.8 N 13 17 7 9 1020.1 - 0.0
30/06:00pm 19.3 17.9 12.3 64 3.9 N 11 17 6 9 1019.9 1019.8 0.0
30/05:30pm 19.7 18.2 12.0 61 4.3 N 11 17 6 9 1019.7 - 0.0
30/05:00pm 20.5 18.1 11.4 56 5.0 N 15 28 8 15 1019.5 1019.4 0.0
30/04:30pm 21.1 18.3 11.4 54 5.4 N 17 28 9 15 1019.4 - 0.0
30/04:00pm 21.6 19.3 11.9 54 5.4 N 15 24 8 13 1019.1 1018.9 0.0
30/03:30pm 22.2 19.9 11.9 52 5.8 N 15 26 8 14 1018.9 - 0.0
30/03:00pm 22.7 21.0 12.3 52 5.9 N 13 26 7 14 1019.0 1018.8 0.0
30/02:30pm 23.1 20.9 12.1 50 6.3 N 15 26 8 14 1019.1 - 0.0
30/02:00pm 24.1 23.3 13.0 50 6.4 N 9 17 5 9 1019.5 1019.4 0.0
30/01:30pm 24.3 23.3 12.3 47 6.9 N 9 11 5 6 1020.1 - 0.0
30/01:00pm 25.0 23.4 12.9 47 7.0 N 13 20 7 11 1020.5 1020.4 0.0
30/12:30pm 23.4 20.0 12.4 50 6.3 NNW 22 28 12 15 1021.0 - 0.0
30/12:00pm 23.2 20.8 13.7 55 5.5 NNW 19 24 10 13 1021.7 1021.6 0.0
30/11:30am 22.5 20.1 13.8 58 5.1 NNW 19 24 10 13 1022.2 - 0.0
30/11:00am 21.4 18.6 13.3 60 4.6 NW 20 28 11 15 1022.8 1022.7 0.0
30/10:30am 19.6 15.7 12.1 62 4.2 WNW 24 30 13 16 1023.2 - 0.0
30/10:00am 18.9 15.1 12.4 66 3.6 WNW 24 32 13 17 1023.2 1023.1 0.0
30/09:30am 18.5 15.6 12.9 70 3.2 NNW 20 28 11 15 1023.3 - 0.0
30/09:00am 17.7 14.5 13.0 74 2.6 NW 22 26 12 14 1023.3 1023.2 0.0
30/08:30am 17.2 14.3 12.9 76 2.4 NW 20 26 11 14 1023.3 - 0.0
30/08:00am 16.5 13.5 12.7 78 2.1 NW 20 26 11 14 1023.3 1023.2 0.0
30/07:30am 16.4 13.4 12.4 77 2.2 NW 20 24 11 13 1023.1 - 0.0
30/07:00am 16.1 13.1 12.5 79 2.0 NW 20 24 11 13 1022.9 1022.8 0.0
30/06:30am 15.9 12.9 12.6 81 1.8 NW 20 24 11 13 1022.7 - 0.0
30/06:00am 16.0 13.0 12.6 80 1.9 WNW 20 24 11 13 1022.4 1022.3 0.0
30/05:30am 16.2 12.9 12.7 80 1.9 NW 22 24 12 13 1022.0 - 0.0
30/05:00am 16.2 12.9 12.7 80 1.9 WNW 22 26 12 14 1021.7 1021.6 0.0
30/04:30am 16.3 13.0 12.8 80 1.9 WNW 22 26 12 14 1021.5 - 0.0
30/04:00am 16.1 12.4 12.7 80 1.9 WNW 24 28 13 15 1021.4 1021.3 0.0
30/03:30am 16.1 12.9 13.0 82 1.7 NW 22 26 12 14 1021.3 - 0.0
30/03:00am 16.3 13.1 13.2 82 1.7 NW 22 28 12 15 1021.4 1021.3 0.0
30/02:30am 16.4 12.9 13.3 82 1.7 NW 24 28 13 15 1021.4 - 0.0
30/02:00am 16.6 13.6 13.7 83 1.6 NW 22 28 12 15 1021.4 1021.3 0.0
30/01:30am 16.8 14.3 14.1 84 1.5 NW 20 24 11 13 1021.4 - 0.0
30/01:00am 17.0 14.1 14.1 83 1.7 NW 22 26 12 14 1021.6 1021.5 0.0
30/12:30am 16.9 13.5 13.6 81 1.9 NW 24 28 13 15 1021.6 - 0.0
30/12:00am 16.8 13.7 13.3 80 2.0 NW 22 26 12 14 1021.6 1021.5 0.0
 
Date/Time
EST
Tmp

°C
App
Tmp
°C
Dew
Point
°C
Rel
Hum
%
Delta-T

°C
Wind Press
QNH
hPa
Press
MSL
hPa
Rain
since
9 am
mm
Dir
 
Spd
km/h
Gust
km/h
Spd
kts
Gust
kts
29/11:30pm 16.9 13.6 12.8 77 2.3 NW 22 26 12 14 1021.6 - 0.0
29/11:00pm 17.0 13.8 11.9 72 2.8 NW 20 26 11 14 1021.8 1021.7 0.0
29/10:30pm 17.1 14.3 11.2 68 3.2 NW 17 20 9 11 1021.9 - 0.0
29/10:00pm 17.3 14.7 10.7 65 3.5 NW 15 19 8 10 1021.8 1021.7 0.0
29/09:30pm 17.5 14.0 10.1 62 3.9 NNW 19 20 10 11 1021.6 - 0.0
29/09:00pm 17.6 14.0 10.5 63 3.8 NNW 20 28 11 15 1021.5 1021.4 0.0
29/08:30pm 17.9 13.7 11.0 64 3.7 NNW 24 28 13 15 1021.3 - 0.0
29/08:00pm 17.9 13.0 11.2 65 3.6 NNW 28 32 15 17 1021.0 1020.9 0.0
29/07:30pm 18.1 14.0 11.4 65 3.7 NNW 24 28 13 15 1020.8 - 0.0
29/07:00pm 19.2 17.2 12.7 66 3.7 N 15 24 8 13 1020.6 1020.5 0.0
29/06:30pm 19.3 17.3 12.6 65 3.8 N 15 30 8 16 1020.4 - 0.0
29/06:00pm 19.4 16.7 12.9 66 3.7 N 19 33 10 18 1020.2 1020.1 0.0
29/05:30pm 19.6 15.8 12.4 63 4.0 N 24 33 13 18 1020.0 - 0.0
29/05:00pm 20.2 15.6 12.4 61 4.4 N 28 35 15 19 1019.9 1019.8 0.0
29/04:30pm 21.0 18.1 11.1 53 5.5 N 17 26 9 14 1019.7 - 0.0
29/04:00pm 21.4 18.1 11.7 54 5.4 N 20 32 11 17 1019.5 1019.4 0.0
29/03:30pm 22.0 19.0 12.5 54 5.4 N 20 35 11 19 1019.4 - 0.0
29/03:00pm 22.3 17.8 11.4 50 6.1 N 26 32 14 17 1019.5 1019.4 0.0
29/02:30pm 22.6 19.3 11.7 50 6.1 N 20 30 11 16 1019.6 - 0.0
29/02:00pm 23.2 20.9 11.6 48 6.5 N 15 24 8 13 1019.8 1019.7 0.0
29/01:30pm 23.7 22.1 11.4 46 6.9 N 11 17 6 9 1020.4 - 0.0
29/01:00pm 24.5 23.2 12.5 47 6.9 N 11 17 6 9 1020.7 1020.6 0.0
29/12:30pm 23.8 20.9 12.4 48 6.5 NNW 19 22 10 12 1021.1 - 0.0
29/12:00pm 22.0 17.6 11.7 52 5.8 NNW 26 33 14 18 1021.6 1021.5 0.0
29/11:30am 21.1 17.3 12.3 57 5.0 NW 24 32 13 17 1022.3 - 0.0
29/11:00am 19.8 15.4 11.6 59 4.5 NW 26 33 14 18 1022.7 1022.6 0.0
29/10:30am 19.1 15.1 11.9 63 4.0 NW 24 30 13 16 1022.9 - 0.0
29/10:00am 17.9 13.4 11.5 66 3.5 NW 26 30 14 16 1023.1 1023.0 0.0
29/09:30am 17.6 12.7 11.4 67 3.4 NW 28 35 15 19 1023.2 - 0.0
29/09:00am 17.0 12.1 11.3 69 3.1 NW 28 33 15 18 1023.3 1023.2 0.0
29/08:30am 16.9 11.9 11.0 68 3.2 NW 28 33 15 18 1023.2 - 0.0
29/08:00am 16.7 12.0 10.8 68 3.2 NW 26 32 14 17 1023.0 1022.9 0.0
29/07:30am 16.4 11.6 10.3 67 3.2 NW 26 30 14 16 1022.8 - 0.0
29/07:00am 16.0 10.8 10.1 68 3.1 NW 28 32 15 17 1022.6 1022.5 0.0
29/06:30am 15.8 10.8 9.5 66 3.3 NW 26 30 14 16 1022.2 - 0.0
29/06:00am 16.2 11.0 8.9 62 3.8 NW 26 28 14 15 1021.8 1021.7 0.0
29/05:30am 16.3 12.2 8.8 61 3.9 WNW 20 24 11 13 1021.5 - 0.0
29/05:00am 16.3 12.2 8.8 61 3.8 WNW 20 24 11 13 1021.3 1021.2 0.0
29/04:30am 16.5 12.1 10.4 67 3.2 WNW 24 30 13 16 1021.1 - 0.0
29/04:00am 16.7 12.2 9.9 64 3.6 WNW 24 28 13 15 1021.0 1020.9 0.0
29/03:30am 16.8 12.5 10.9 68 3.2 WNW 24 28 13 15 1021.0 - 0.0
29/03:00am 16.9 12.5 10.3 65 3.5 WNW 24 28 13 15 1021.0 1020.9 0.0
29/02:30am 17.0 13.4 10.4 65 3.5 WNW 20 24 11 13 1021.1 - 0.0
29/02:00am 17.0 13.2 11.1 68 3.2 WNW 22 24 12 13 1021.2 1021.1 0.0
29/01:30am 17.0 13.9 11.5 70 3.0 W 19 22 10 12 1021.4 - 0.0
29/01:00am 17.0 13.6 11.1 68 3.2 WNW 20 22 11 12 1021.5 1021.4 0.0
29/12:30am 17.4 14.7 11.7 69 3.1 WNW 17 19 9 10 1021.9 - 0.0
29/12:00am 17.5 14.9 12.0 70 3.0 WNW 17 19 9 10 1022.0 1021.9 0.0
 
Date/Time
EST
Tmp

°C
App
Tmp
°C
Dew
Point
°C
Rel
Hum
%
Delta-T

°C
Wind Press
QNH
hPa
Press
MSL
hPa
Rain
since
9 am
mm
Dir
 
Spd
km/h
Gust
km/h
Spd
kts
Gust
kts
28/11:30pm 17.6 14.9 11.8 69 3.2 NW 17 19 9 10 1022.1 - 0.0
28/11:00pm 17.8 16.6 10.4 62 4.0 N 7 15 4 8 1022.1 1022.0 0.0
28/10:30pm 17.9 16.7 10.3 61 4.1 N 7 13 4 7 1022.2 - 0.0
28/10:00pm 18.1 16.2 10.5 61 4.1 N 11 17 6 9 1022.3 1022.2 0.0
28/09:30pm 18.1 16.6 10.5 61 4.1 N 9 17 5 9 1022.2 - 0.0
28/09:00pm 18.1 15.7 10.2 60 4.2 N 13 22 7 12 1022.0 1021.9 0.0
28/08:30pm 18.3 14.2 10.2 59 4.3 NNE 22 26 12 14 1021.8 - 0.0
28/08:00pm 18.2 14.5 10.1 59 4.3 NNE 20 26 11 14 1021.6 1021.5 0.0
28/07:30pm 18.0 14.9 10.4 61 4.1 NNE 17 24 9 13 1021.6 - 0.0
28/07:00pm 18.0 15.7 10.4 61 4.1 NNE 13 20 7 11 1021.5 1021.4 0.0
28/06:30pm 18.2 15.7 9.8 58 4.5 NE 13 20 7 11 1021.1 - 0.0
28/06:00pm 18.4 16.1 10.3 59 4.3 NE 13 19 7 10 1020.9 1020.8 0.0
28/05:30pm 18.6 15.7 9.7 56 4.7 ENE 15 19 8 10 1020.8 - 0.0
28/05:00pm 19.4 17.0 9.9 54 5.1 NE 13 17 7 9 1020.8 1020.7 0.0
28/04:30pm 19.9 17.3 9.5 51 5.5 NE 13 17 7 9 1020.6 - 0.0
28/04:00pm 20.5 18.5 10.3 52 5.5 NE 11 17 6 9 1020.5 1020.4 0.0
28/03:30pm 20.1 17.4 10.5 54 5.2 NE 15 20 8 11 1020.5 - 0.0
28/03:00pm 21.5 20.1 10.9 51 5.8 NNE 9 17 5 9 1020.4 1020.3 0.0
28/02:30pm 21.8 20.3 11.8 53 5.6 NE 11 17 6 9 1020.5 - 0.0
28/02:00pm 21.7 20.4 11.1 51 5.9 NNE 9 13 5 7 1020.9 1020.8 0.0
28/01:30pm 23.4 22.0 12.1 49 6.4 NNE 11 17 6 9 1021.2 - 0.0
28/01:00pm 23.2 21.8 12.2 50 6.2 NNE 11 17 6 9 1021.6 1021.5 0.0
28/12:30pm 23.3 22.8 13.8 55 5.6 N 9 13 5 7 1022.1 - 0.0
28/12:00pm 22.7 22.7 14.3 59 4.9 N 7 11 4 6 1022.7 1022.6 0.0
28/11:30am 20.0 19.6 13.0 64 4.0 E 7 9 4 5 1023.2 - 0.0
28/11:00am 19.3 18.2 13.2 68 3.5 SE 11 15 6 8 1023.5 1023.4 0.0
28/10:30am 19.1 18.1 13.5 70 3.2 SSE 11 17 6 9 1023.8 - 0.0
28/10:00am 18.5 17.1 13.4 72 2.9 S 13 17 7 9 1024.1 1024.0 0.0
28/09:30am 17.8 16.2 12.7 72 2.9 S 13 17 7 9 1024.1 - 0.0
28/09:00am 17.6 15.6 12.7 73 2.7 S 15 17 8 9 1024.1 1024.0 0.0
28/08:30am 17.1 14.6 12.4 74 2.6 S 17 20 9 11 1023.9 - 0.0
28/08:00am 16.8 13.7 12.3 75 2.5 S 20 24 11 13 1023.8 1023.7 0.0
28/07:30am 16.1 12.4 11.5 74 2.5 S 22 24 12 13 1023.6 - 0.0

Latest Capital City Observations: Canberra | Sydney | Melbourne | Brisbane | Adelaide | Perth | Hobart | Darwin

Other Formats:

Comma delimited format used in spreadsheet applications
http://www.bom.gov.au/fwo/IDQ60901/IDQ60901.94584.axf

JavaScript Object Notation format (JSON) in row-major order
http://www.bom.gov.au/fwo/IDQ60901/IDQ60901.94584.json